createdAt,value
2017-01-29T00:01:07.952Z,1013.13
2017-01-29T00:02:19.357Z,1013.13
2017-01-29T00:03:30.966Z,1013.08
2017-01-29T00:04:42.380Z,1013.07
2017-01-29T00:05:53.835Z,1013.14
2017-01-29T00:07:05.250Z,1013.09
2017-01-29T00:08:16.862Z,1013.09
2017-01-29T00:09:28.270Z,1013.13
2017-01-29T00:10:39.692Z,1013.15
2017-01-29T00:11:51.382Z,1013.18
2017-01-29T00:13:02.795Z,1013.21
2017-01-29T00:14:14.199Z,1013.2
2017-01-29T00:15:25.613Z,1013.14
2017-01-29T00:16:37.030Z,1013.21
2017-01-29T00:17:48.494Z,1013.18
2017-01-29T00:18:59.903Z,1013.22
2017-01-29T00:20:11.306Z,1013.2
2017-01-29T00:21:22.930Z,1013.2
2017-01-29T00:22:34.335Z,1013.25
2017-01-29T00:23:45.795Z,1013.19
2017-01-29T00:24:57.207Z,1013.24
2017-01-29T00:26:08.612Z,1013.23
2017-01-29T00:27:20.038Z,1013.27
2017-01-29T00:28:31.449Z,1013.26
2017-01-29T00:29:42.907Z,1013.22
2017-01-29T00:30:54.316Z,1013.28
2017-01-29T00:32:05.925Z,1013.27
2017-01-29T00:33:17.331Z,1013.25
2017-01-29T00:34:28.750Z,1013.31
2017-01-29T00:35:40.210Z,1013.29
2017-01-29T00:36:51.819Z,1013.26
2017-01-29T00:38:03.232Z,1013.28
2017-01-29T00:39:14.637Z,1013.28
2017-01-29T00:40:26.049Z,1013.27
2017-01-29T00:41:37.504Z,1013.3
2017-01-29T00:42:49.109Z,1013.31
2017-01-29T00:44:00.521Z,1013.32
2017-01-29T00:45:11.933Z,1013.28
2017-01-29T00:46:23.546Z,1013.3
2017-01-29T00:47:35.006Z,1013.39
2017-01-29T00:48:46.416Z,1013.31
2017-01-29T00:49:57.817Z,1013.38
2017-01-29T00:51:09.225Z,1013.37
2017-01-29T00:52:20.628Z,1013.35
2017-01-29T00:53:32.085Z,1013.37
2017-01-29T00:54:43.690Z,1013.35
2017-01-29T00:55:55.093Z,1013.37
2017-01-29T00:57:06.705Z,1013.38
2017-01-29T00:58:18.115Z,1013.39
2017-01-29T00:59:29.576Z,1013.4
2017-01-29T01:00:40.987Z,1013.42
2017-01-29T01:01:52.396Z,1013.42
2017-01-29T01:03:03.803Z,1013.42
2017-01-29T01:04:15.213Z,1013.42
2017-01-29T01:05:26.873Z,1013.41
2017-01-29T01:06:38.285Z,1013.37
2017-01-29T01:07:49.696Z,1013.38
2017-01-29T01:09:01.106Z,1013.35
2017-01-29T01:10:12.517Z,1013.38
2017-01-29T01:11:23.992Z,1013.37
2017-01-29T01:12:35.398Z,1013.37
2017-01-29T01:13:46.805Z,1013.35
2017-01-29T01:14:58.221Z,1013.37
2017-01-29T01:16:09.631Z,1013.33
2017-01-29T01:17:21.292Z,1013.37
2017-01-29T01:18:32.696Z,1013.39
2017-01-29T01:19:44.105Z,1013.4
2017-01-29T01:20:55.515Z,1013.4
2017-01-29T01:22:06.926Z,1013.45
2017-01-29T01:23:18.587Z,1013.42
2017-01-29T01:24:30.007Z,1013.39
2017-01-29T01:25:41.414Z,1013.39
2017-01-29T01:26:53.023Z,1013.39
2017-01-29T01:28:04.433Z,1013.36
2017-01-29T01:29:15.890Z,1013.34
2017-01-29T01:30:27.303Z,1013.36
2017-01-29T01:31:38.717Z,1013.38
2017-01-29T01:32:50.135Z,1013.42
2017-01-29T01:34:01.558Z,1013.43
2017-01-29T01:35:13.029Z,1013.47
2017-01-29T01:36:24.436Z,1013.5
2017-01-29T01:37:35.840Z,1013.45
2017-01-29T01:38:47.246Z,1013.49
2017-01-29T01:39:58.857Z,1013.5
2017-01-29T01:41:10.310Z,1013.47
2017-01-29T01:42:22.120Z,1013.5
2017-01-29T01:43:33.532Z,1013.52
2017-01-29T01:44:45.147Z,1013.53
2017-01-29T01:45:56.554Z,1013.52
2017-01-29T01:47:08.210Z,1013.5
2017-01-29T01:48:19.824Z,1013.41
2017-01-29T01:49:31.434Z,1013.45
2017-01-29T01:50:42.835Z,1013.41
2017-01-29T01:51:54.443Z,1013.39
2017-01-29T01:53:05.893Z,1013.35
2017-01-29T01:54:17.495Z,1013.34
2017-01-29T01:55:28.905Z,1013.28
2017-01-29T01:56:40.310Z,1013.29
2017-01-29T01:57:51.718Z,1013.24
2017-01-29T01:59:03.376Z,1013.21
2017-01-29T02:00:14.787Z,1013.2
2017-01-29T02:01:26.194Z,1013.18
2017-01-29T02:02:37.599Z,1013.24
2017-01-29T02:03:49.014Z,1013.25
2017-01-29T02:05:00.675Z,1013.28
2017-01-29T02:06:12.082Z,1013.31
2017-01-29T02:07:23.490Z,1013.36
2017-01-29T02:08:34.896Z,1013.42
2017-01-29T02:09:46.505Z,1013.49
2017-01-29T02:10:58.165Z,1013.47
2017-01-29T02:12:09.579Z,1013.54
2017-01-29T02:13:21.387Z,1013.61
2017-01-29T02:14:32.800Z,1013.56
2017-01-29T02:15:44.219Z,1013.59
2017-01-29T02:16:55.721Z,1013.63
2017-01-29T02:18:07.137Z,1013.65
2017-01-29T02:19:18.547Z,1013.66
2017-01-29T02:20:29.954Z,1013.68
2017-01-29T02:21:41.355Z,1013.72
2017-01-29T02:22:52.821Z,1013.62
2017-01-29T02:24:04.262Z,1013.59
2017-01-29T02:25:15.665Z,1013.51
2017-01-29T02:26:27.068Z,1013.52
2017-01-29T02:27:38.482Z,1013.51
2017-01-29T02:28:49.964Z,1013.47
2017-01-29T02:30:01.371Z,1013.47
2017-01-29T02:31:12.784Z,1013.47
2017-01-29T02:32:24.199Z,1013.41
2017-01-29T02:33:35.602Z,1013.4
2017-01-29T02:34:47.056Z,1013.4
2017-01-29T02:35:58.456Z,1013.4
2017-01-29T02:37:09.862Z,1013.45
2017-01-29T02:38:21.284Z,1013.42
2017-01-29T02:39:32.893Z,1013.45
2017-01-29T02:40:44.349Z,1013.47
2017-01-29T02:41:55.992Z,1013.46
2017-01-29T02:43:07.404Z,1013.49
2017-01-29T02:44:18.808Z,1013.42
2017-01-29T02:45:30.215Z,1013.44
2017-01-29T02:46:41.677Z,1013.47
2017-01-29T02:47:53.087Z,1013.44
2017-01-29T02:49:04.698Z,1013.41
2017-01-29T02:50:16.111Z,1013.42
2017-01-29T02:51:27.528Z,1013.43
2017-01-29T02:52:39.001Z,1013.41
2017-01-29T02:53:50.413Z,1013.43
2017-01-29T02:55:01.824Z,1013.44
2017-01-29T02:56:13.225Z,1013.4
2017-01-29T02:57:24.825Z,1013.43
2017-01-29T02:58:36.328Z,1013.43
2017-01-29T02:59:47.730Z,1013.39
2017-01-29T03:00:59.142Z,1013.36
2017-01-29T03:02:10.561Z,1013.39
2017-01-29T03:03:21.981Z,1013.35
2017-01-29T03:04:33.444Z,1013.38
2017-01-29T03:05:44.851Z,1013.41
2017-01-29T03:06:56.257Z,1013.38
2017-01-29T03:08:07.664Z,1013.42
2017-01-29T03:09:19.082Z,1013.45
2017-01-29T03:10:30.556Z,1013.44
2017-01-29T03:11:42.168Z,1013.44
2017-01-29T03:12:53.568Z,1013.33
2017-01-29T03:14:04.985Z,1013.31
2017-01-29T03:15:16.594Z,1013.36
2017-01-29T03:16:28.054Z,1013.36
2017-01-29T03:17:39.458Z,1013.36
2017-01-29T03:18:50.880Z,1013.34
2017-01-29T03:20:02.487Z,1013.38
2017-01-29T03:21:13.901Z,1013.41
2017-01-29T03:22:25.356Z,1013.41
2017-01-29T03:23:36.758Z,1013.44
2017-01-29T03:24:48.367Z,1013.5
2017-01-29T03:25:59.775Z,1013.5
2017-01-29T03:27:11.391Z,1013.53
2017-01-29T03:28:22.847Z,1013.52
2017-01-29T03:29:34.251Z,1013.51
2017-01-29T03:30:45.670Z,1013.56
2017-01-29T03:31:57.077Z,1013.55
2017-01-29T03:33:08.486Z,1013.57
2017-01-29T03:34:19.950Z,1013.58
2017-01-29T03:35:31.360Z,1013.61
2017-01-29T03:36:42.763Z,1013.64
2017-01-29T03:37:54.171Z,1013.62
2017-01-29T03:39:05.582Z,1013.58
2017-01-29T03:40:17.028Z,1013.61
2017-01-29T03:41:59.963Z,1013.64
2017-01-29T03:43:11.371Z,1013.63
2017-01-29T03:44:22.991Z,1013.62
2017-01-29T03:45:34.649Z,1013.66
2017-01-29T03:46:46.059Z,1013.7
2017-01-29T03:47:57.468Z,1013.71
2017-01-29T03:49:08.884Z,1013.75
2017-01-29T03:50:20.287Z,1013.8
2017-01-29T03:51:31.747Z,1013.77
2017-01-29T03:52:43.149Z,1013.81
2017-01-29T03:53:54.766Z,1013.78
2017-01-29T03:55:06.206Z,1013.8
2017-01-29T03:56:17.608Z,1013.8
2017-01-29T03:57:29.268Z,1013.8
2017-01-29T03:58:40.883Z,1013.82
2017-01-29T03:59:52.294Z,1013.81
2017-01-29T04:01:03.701Z,1013.8
2017-01-29T04:02:15.111Z,1013.82
2017-01-29T04:03:26.568Z,1013.84
2017-01-29T04:04:37.969Z,1013.89
2017-01-29T04:05:49.582Z,1013.89
2017-01-29T04:07:00.984Z,1013.87
2017-01-29T04:08:12.410Z,1013.84
2017-01-29T04:09:23.865Z,1013.78
2017-01-29T04:10:35.295Z,1013.79
2017-01-29T04:11:46.707Z,1013.79
2017-01-29T04:12:58.319Z,1013.79
2017-01-29T04:14:09.929Z,1013.79
2017-01-29T04:15:21.390Z,1013.78
2017-01-29T04:16:33.009Z,1013.76
2017-01-29T04:17:44.428Z,1013.76
2017-01-29T04:18:55.832Z,1013.74
2017-01-29T04:20:07.449Z,1013.72
2017-01-29T04:21:18.909Z,1013.72
2017-01-29T04:22:30.318Z,1013.71
2017-01-29T04:23:41.926Z,1013.72
2017-01-29T04:24:53.336Z,1013.7
2017-01-29T04:26:04.738Z,1013.73
2017-01-29T04:27:16.203Z,1013.69
2017-01-29T04:28:27.602Z,1013.72
2017-01-29T04:29:39.011Z,1013.68
2017-01-29T04:30:50.627Z,1013.69
2017-01-29T04:32:02.243Z,1013.67
2017-01-29T04:33:13.700Z,1013.69
2017-01-29T04:34:25.502Z,1013.71
2017-01-29T04:35:36.912Z,1013.68
2017-01-29T04:36:48.322Z,1013.69
2017-01-29T04:37:59.721Z,1013.68
2017-01-29T04:39:11.378Z,1013.67
2017-01-29T04:40:22.793Z,1013.66
2017-01-29T04:41:34.200Z,1013.64
2017-01-29T04:42:45.616Z,1013.62
2017-01-29T04:43:57.222Z,1013.61
2017-01-29T04:45:08.684Z,1013.6
2017-01-29T04:46:20.119Z,1013.58
2017-01-29T04:47:31.521Z,1013.6
2017-01-29T04:48:42.939Z,1013.58
2017-01-29T04:49:54.343Z,1013.6
2017-01-29T04:51:05.796Z,1013.55
2017-01-29T04:52:17.198Z,1013.57
2017-01-29T04:53:28.805Z,1013.55
2017-01-29T04:54:40.206Z,1013.58
2017-01-29T04:55:51.819Z,1013.58
2017-01-29T04:57:03.271Z,1013.59
2017-01-29T04:58:14.676Z,1013.55
2017-01-29T04:59:26.090Z,1013.54
2017-01-29T05:00:37.697Z,1013.58
2017-01-29T05:01:49.508Z,1013.56
2017-01-29T05:03:00.963Z,1013.62
2017-01-29T05:04:12.371Z,1013.62
2017-01-29T05:05:23.790Z,1013.58
2017-01-29T05:06:35.217Z,1013.59
2017-01-29T05:07:46.648Z,1013.63
2017-01-29T05:08:58.103Z,1013.64
2017-01-29T05:10:09.508Z,1013.62
2017-01-29T05:11:21.116Z,1013.66
2017-01-29T05:12:32.723Z,1013.63
2017-01-29T05:13:44.134Z,1013.62
2017-01-29T05:14:55.597Z,1013.71
2017-01-29T05:16:07.005Z,1013.73
2017-01-29T05:17:18.414Z,1013.74
2017-01-29T05:18:29.833Z,1013.79
2017-01-29T05:19:41.243Z,1013.72
2017-01-29T05:20:52.938Z,1013.74
2017-01-29T05:22:04.390Z,1013.7
2017-01-29T05:23:15.800Z,1013.66
2017-01-29T05:24:27.213Z,1013.67
2017-01-29T05:25:38.651Z,1013.65
2017-01-29T05:26:50.112Z,1013.65
2017-01-29T05:28:01.512Z,1013.7
2017-01-29T05:29:12.913Z,1013.7
2017-01-29T05:30:24.327Z,1013.7
2017-01-29T05:31:35.735Z,1013.68
2017-01-29T05:32:47.198Z,1013.75
2017-01-29T05:33:58.805Z,1013.75
2017-01-29T05:35:10.201Z,1013.76
2017-01-29T05:36:21.593Z,1013.78
2017-01-29T05:37:33.203Z,1013.76
2017-01-29T05:38:44.855Z,1013.76
2017-01-29T05:39:56.264Z,1013.71
2017-01-29T05:41:07.671Z,1013.71
2017-01-29T05:42:19.279Z,1013.69
2017-01-29T05:43:30.883Z,1013.69
2017-01-29T05:44:42.549Z,1013.69
2017-01-29T05:45:54.181Z,1013.7
2017-01-29T05:47:05.788Z,1013.65
2017-01-29T05:48:17.393Z,1013.65
2017-01-29T05:49:28.799Z,1013.65
2017-01-29T05:50:40.467Z,1013.68
2017-01-29T05:51:51.885Z,1013.69
2017-01-29T05:53:03.299Z,1013.69
2017-01-29T05:54:14.904Z,1013.73
2017-01-29T05:55:26.312Z,1013.72
2017-01-29T05:56:37.795Z,1013.76
2017-01-29T05:57:49.204Z,1013.77
2017-01-29T05:59:00.606Z,1013.75
2017-01-29T06:00:12.012Z,1013.76
2017-01-29T06:01:23.420Z,1013.75
2017-01-29T06:02:35.084Z,1013.77
2017-01-29T06:03:46.491Z,1013.74
2017-01-29T06:04:57.902Z,1013.77
2017-01-29T06:06:09.313Z,1013.78
2017-01-29T06:07:20.719Z,1013.74
2017-01-29T06:08:32.169Z,1013.77
2017-01-29T06:09:43.571Z,1013.78
2017-01-29T06:10:55.216Z,1013.74
2017-01-29T06:12:06.628Z,1013.74
2017-01-29T06:13:18.034Z,1013.77
2017-01-29T06:14:29.500Z,1013.79
2017-01-29T06:15:40.904Z,1013.82
2017-01-29T06:16:52.328Z,1013.84
2017-01-29T06:18:03.740Z,1013.81
2017-01-29T06:19:15.348Z,1013.82
2017-01-29T06:20:26.805Z,1013.81
2017-01-29T06:21:38.239Z,1013.82
2017-01-29T06:22:49.682Z,1013.81
2017-01-29T06:24:01.293Z,1013.82
2017-01-29T06:25:12.693Z,1013.82
2017-01-29T06:26:24.148Z,1013.78
2017-01-29T06:27:35.559Z,1013.82
2017-01-29T06:28:46.967Z,1013.85
2017-01-29T06:29:58.375Z,1013.86
2017-01-29T06:31:09.782Z,1013.87
2017-01-29T06:32:21.231Z,1013.86
2017-01-29T06:33:32.633Z,1013.86
2017-01-29T06:34:44.041Z,1013.87
2017-01-29T06:35:55.450Z,1013.89
2017-01-29T06:37:06.858Z,1013.91
2017-01-29T06:38:18.323Z,1013.86
2017-01-29T06:39:29.734Z,1013.88
2017-01-29T06:40:41.343Z,1013.85
2017-01-29T06:41:52.751Z,1013.82
2017-01-29T06:43:04.352Z,1013.83
2017-01-29T06:44:15.812Z,1013.81
2017-01-29T06:45:27.218Z,1013.84
2017-01-29T06:46:38.611Z,1013.83
2017-01-29T06:47:50.227Z,1013.86
2017-01-29T06:49:01.644Z,1013.88
2017-01-29T06:50:13.109Z,1013.89
2017-01-29T06:51:24.518Z,1013.91
2017-01-29T06:52:35.916Z,1013.88
2017-01-29T06:53:47.322Z,1013.88
2017-01-29T06:54:58.722Z,1013.88
2017-01-29T06:56:10.181Z,1013.89
2017-01-29T06:57:21.581Z,1013.82
2017-01-29T06:58:33.184Z,1013.85
2017-01-29T06:59:44.794Z,1013.84
2017-01-29T07:00:56.195Z,1013.84
2017-01-29T07:02:08.061Z,1013.84
2017-01-29T07:03:19.663Z,1013.83
2017-01-29T07:04:31.274Z,1013.81
2017-01-29T07:05:42.708Z,1013.81
2017-01-29T07:06:54.116Z,1013.82
2017-01-29T07:08:05.578Z,1013.83
2017-01-29T07:09:16.987Z,1013.85
2017-01-29T07:10:28.399Z,1013.8
2017-01-29T07:11:39.807Z,1013.8
2017-01-29T07:12:51.610Z,1013.78
2017-01-29T07:14:03.068Z,1013.84
2017-01-29T07:15:14.470Z,1013.78
2017-01-29T07:16:26.079Z,1013.79
2017-01-29T07:17:37.480Z,1013.79
2017-01-29T07:18:48.900Z,1013.75
2017-01-29T07:20:00.358Z,1013.75
2017-01-29T07:21:11.766Z,1013.75
2017-01-29T07:22:23.165Z,1013.76
2017-01-29T07:23:34.570Z,1013.78
2017-01-29T07:24:45.982Z,1013.8
2017-01-29T07:25:57.434Z,1013.81
2017-01-29T07:27:08.831Z,1013.83
2017-01-29T07:28:20.434Z,1013.85
2017-01-29T07:29:32.047Z,1013.83
2017-01-29T07:30:43.458Z,1013.84
2017-01-29T07:31:54.910Z,1013.82
2017-01-29T07:33:06.314Z,1013.84
2017-01-29T07:34:17.715Z,1013.76
2017-01-29T07:35:29.147Z,1013.84
2017-01-29T07:36:40.584Z,1013.78
2017-01-29T07:37:52.235Z,1013.79
2017-01-29T07:39:03.642Z,1013.76
2017-01-29T07:40:15.054Z,1013.78
2017-01-29T07:41:26.459Z,1013.75
2017-01-29T07:42:37.871Z,1013.78
2017-01-29T07:43:49.526Z,1013.78
2017-01-29T07:45:00.937Z,1013.79
2017-01-29T07:46:12.342Z,1013.82
2017-01-29T07:47:23.763Z,1013.8
2017-01-29T07:48:35.169Z,1013.75
2017-01-29T07:49:46.625Z,1013.81
2017-01-29T07:50:58.037Z,1013.76
2017-01-29T07:52:09.450Z,1013.81
2017-01-29T07:53:20.855Z,1013.82
2017-01-29T07:54:32.266Z,1013.82
2017-01-29T07:55:43.717Z,1013.84
2017-01-29T07:56:55.124Z,1013.84
2017-01-29T07:58:06.527Z,1013.8
2017-01-29T07:59:17.937Z,1013.78
2017-01-29T08:00:29.339Z,1013.76
2017-01-29T08:01:40.796Z,1013.76
2017-01-29T08:02:52.199Z,1013.69
2017-01-29T08:04:03.602Z,1013.69
2017-01-29T08:05:15.217Z,1013.71
2017-01-29T08:06:26.620Z,1013.71
2017-01-29T08:07:38.287Z,1013.71
2017-01-29T08:08:49.696Z,1013.69
2017-01-29T08:10:01.305Z,1013.71
2017-01-29T08:11:12.929Z,1013.7
2017-01-29T08:12:24.333Z,1013.7
2017-01-29T08:13:35.794Z,1013.69
2017-01-29T08:14:47.204Z,1013.68
2017-01-29T08:15:58.617Z,1013.74
2017-01-29T08:17:10.446Z,1013.7
2017-01-29T08:18:21.864Z,1013.67
2017-01-29T08:19:33.323Z,1013.68
2017-01-29T08:20:44.726Z,1013.73
2017-01-29T08:21:56.338Z,1013.71
2017-01-29T08:23:07.745Z,1013.72
2017-01-29T08:24:19.148Z,1013.78
2017-01-29T08:25:30.805Z,1013.78
2017-01-29T08:26:42.218Z,1013.76
2017-01-29T08:27:53.627Z,1013.73
2017-01-29T08:29:05.033Z,1013.75
2017-01-29T08:30:16.442Z,1013.79
2017-01-29T08:31:27.907Z,1013.78
2017-01-29T08:32:39.320Z,1013.82
2017-01-29T08:33:50.718Z,1013.82
2017-01-29T08:35:02.324Z,1013.85
2017-01-29T08:36:13.737Z,1013.87
2017-01-29T08:37:25.191Z,1013.96
2017-01-29T08:38:36.793Z,1014.07
2017-01-29T08:39:48.399Z,1014.28
2017-01-29T08:40:59.795Z,1014.31
2017-01-29T08:42:11.207Z,1014.29
2017-01-29T08:43:22.662Z,1014.29
2017-01-29T08:44:34.073Z,1014.31
2017-01-29T08:45:45.505Z,1014.3
2017-01-29T08:46:56.909Z,1014.33
2017-01-29T08:48:08.320Z,1014.29
2017-01-29T08:49:19.785Z,1014.24
2017-01-29T08:50:31.186Z,1014.27
2017-01-29T08:51:42.593Z,1014.28
2017-01-29T08:52:53.992Z,1014.27
2017-01-29T08:54:05.401Z,1014.3
2017-01-29T08:55:16.854Z,1014.27
2017-01-29T08:56:28.260Z,1014.24
2017-01-29T08:57:39.663Z,1014.25
2017-01-29T08:58:51.068Z,1014.26
2017-01-29T09:00:02.685Z,1014.28
2017-01-29T09:01:14.137Z,1014.23
2017-01-29T09:02:25.534Z,1014.13
2017-01-29T09:03:37.143Z,1014.19
2017-01-29T09:04:48.551Z,1014.15
2017-01-29T09:05:59.966Z,1014.14
2017-01-29T09:07:11.627Z,1014.11
2017-01-29T09:08:23.030Z,1014.04
2017-01-29T09:09:34.441Z,1014.07
2017-01-29T09:10:45.844Z,1014.07
2017-01-29T09:11:57.449Z,1014.02
2017-01-29T09:13:09.003Z,1014.04
2017-01-29T09:14:20.412Z,1014.11
2017-01-29T09:15:31.813Z,1014.03
2017-01-29T09:16:43.219Z,1014.09
2017-01-29T09:17:54.632Z,1014.05
2017-01-29T09:19:06.098Z,1014.05
2017-01-29T09:20:17.498Z,1014.08
2017-01-29T09:21:28.905Z,1014.13
2017-01-29T09:22:40.312Z,1014.03
2017-01-29T09:23:51.718Z,1014.03
2017-01-29T09:25:03.180Z,1014.09
2017-01-29T09:26:14.792Z,1014.12
2017-01-29T09:27:26.404Z,1014.07
2017-01-29T09:28:38.009Z,1014.13
2017-01-29T09:29:49.625Z,1014.12
2017-01-29T09:31:01.084Z,1014.11
2017-01-29T09:32:12.481Z,1014.07
2017-01-29T09:33:23.881Z,1014.11
2017-01-29T09:34:35.319Z,1014.04
2017-01-29T09:35:46.729Z,1014.1
2017-01-29T09:36:58.190Z,1014.09
2017-01-29T09:38:09.591Z,1014.09
2017-01-29T09:39:20.999Z,1014.06
2017-01-29T09:40:32.402Z,1014.1
2017-01-29T09:41:43.801Z,1014.06
2017-01-29T09:42:55.263Z,1014.05
2017-01-29T09:44:06.686Z,1014.08
2017-01-29T09:45:18.101Z,1014.06
2017-01-29T09:46:29.513Z,1014.04
2017-01-29T09:47:40.926Z,1014.11
2017-01-29T09:48:52.583Z,1014.1
2017-01-29T09:50:03.993Z,1014.09
2017-01-29T09:51:15.408Z,1014.11
2017-01-29T09:52:26.819Z,1014.12
2017-01-29T09:53:38.223Z,1014.17
2017-01-29T09:54:49.676Z,1014.16
2017-01-29T09:56:01.091Z,1014.15
2017-01-29T09:57:12.693Z,1014.12
2017-01-29T09:58:24.095Z,1014.07
2017-01-29T09:59:35.709Z,1014.1
2017-01-29T10:00:47.170Z,1014.09
2017-01-29T10:01:58.581Z,1014.04
2017-01-29T10:03:09.989Z,1014.04
2017-01-29T10:04:21.600Z,1014.01
2017-01-29T10:05:33.404Z,1014.1
2017-01-29T10:06:44.868Z,1014.06
2017-01-29T10:07:56.314Z,1014.1
2017-01-29T10:09:07.727Z,1014.09
2017-01-29T10:10:19.127Z,1014.07
2017-01-29T10:11:30.527Z,1014.01
2017-01-29T10:12:41.976Z,1014.03
2017-01-29T10:13:53.387Z,1014.02
2017-01-29T10:15:05.204Z,1014.04
2017-01-29T10:16:16.605Z,1013.99
2017-01-29T10:17:28.005Z,1013.99
2017-01-29T10:18:39.463Z,1014.07
2017-01-29T10:19:50.876Z,1014.01
2017-01-29T10:21:02.485Z,1014.02
2017-01-29T10:22:13.890Z,1013.97
2017-01-29T10:23:25.297Z,1014.01
2017-01-29T10:24:36.755Z,1014.01
2017-01-29T10:25:48.165Z,1014
2017-01-29T10:26:59.605Z,1014
2017-01-29T10:28:11.014Z,1014
2017-01-29T10:29:22.420Z,1014
2017-01-29T10:30:33.890Z,1014.02
2017-01-29T10:31:45.305Z,1013.97
2017-01-29T10:32:56.724Z,1013.92
2017-01-29T10:34:08.128Z,1013.91
2017-01-29T10:35:19.534Z,1013.97
2017-01-29T10:36:30.987Z,1014.05
2017-01-29T10:37:42.394Z,1014.09
2017-01-29T10:38:53.806Z,1014
2017-01-29T10:40:05.230Z,1014.04
2017-01-29T10:41:16.643Z,1014.05
2017-01-29T10:42:28.095Z,1014.05
2017-01-29T10:43:39.500Z,1014.05
2017-01-29T10:44:50.909Z,1014.04
2017-01-29T10:46:02.322Z,1013.96
2017-01-29T10:47:13.727Z,1014.02
2017-01-29T10:48:25.199Z,1013.98
2017-01-29T10:49:36.614Z,1014
2017-01-29T10:50:48.023Z,1014.04
2017-01-29T10:51:59.628Z,1013.98
2017-01-29T10:53:11.235Z,1014.06
2017-01-29T10:54:22.692Z,1014.02
2017-01-29T10:55:34.105Z,1013.99
2017-01-29T10:56:45.504Z,1014
2017-01-29T10:57:56.916Z,1013.98
2017-01-29T10:59:08.525Z,1013.97
2017-01-29T11:00:19.987Z,1014.03
2017-01-29T11:01:31.391Z,1014
2017-01-29T11:02:42.796Z,1014
2017-01-29T11:03:54.209Z,1014.02
2017-01-29T11:05:05.613Z,1014.05
2017-01-29T11:06:17.267Z,1014.05
2017-01-29T11:07:28.674Z,1014.02
2017-01-29T11:08:40.073Z,1014.05
2017-01-29T11:09:51.881Z,1014.02
2017-01-29T11:11:03.486Z,1013.96
2017-01-29T11:12:14.961Z,1013.96
2017-01-29T11:13:26.366Z,1013.98
2017-01-29T11:14:37.775Z,1013.98
2017-01-29T11:15:49.190Z,1014
2017-01-29T11:17:00.596Z,1013.98
2017-01-29T11:18:12.050Z,1014.06
2017-01-29T11:19:23.456Z,1013.96
2017-01-29T11:20:34.862Z,1014.02
2017-01-29T11:21:46.481Z,1014.06
2017-01-29T11:22:57.895Z,1014.08
2017-01-29T11:24:09.551Z,1014.07
2017-01-29T11:25:20.961Z,1014.05
2017-01-29T11:26:32.372Z,1014.1
2017-01-29T11:27:43.776Z,1014.06
2017-01-29T11:28:55.386Z,1014.06
2017-01-29T11:30:06.841Z,1014.01
2017-01-29T11:31:18.243Z,1014
2017-01-29T11:32:29.851Z,1013.97
2017-01-29T11:33:41.459Z,1013.97
2017-01-29T11:34:52.870Z,1013.97
2017-01-29T11:36:04.527Z,1014
2017-01-29T11:37:16.155Z,1014.01
2017-01-29T11:38:27.562Z,1013.96
2017-01-29T11:39:38.968Z,1013.97
2017-01-29T11:40:50.585Z,1013.99
2017-01-29T11:42:02.045Z,1013.94
2017-01-29T11:43:13.465Z,1014.04
2017-01-29T11:44:25.076Z,1014.03
2017-01-29T11:45:36.486Z,1014.06
2017-01-29T11:46:47.890Z,1014.01
2017-01-29T11:47:59.354Z,1013.98
2017-01-29T11:49:10.761Z,1014.02
2017-01-29T11:50:22.177Z,1014.05
2017-01-29T11:51:33.589Z,1014.07
2017-01-29T11:52:45.203Z,1014.06
2017-01-29T11:53:56.860Z,1014.09
2017-01-29T11:55:08.264Z,1014.07
2017-01-29T11:56:19.666Z,1014.03
2017-01-29T11:57:31.077Z,1014.01
2017-01-29T11:58:42.486Z,1014.07
2017-01-29T11:59:53.949Z,1014.01
2017-01-29T12:01:05.380Z,1013.96
2017-01-29T12:02:16.991Z,1013.98
2017-01-29T12:03:28.404Z,1013.96
2017-01-29T12:04:39.812Z,1013.91
2017-01-29T12:05:51.264Z,1013.96
2017-01-29T12:07:02.676Z,1013.98
2017-01-29T12:08:14.094Z,1013.99
2017-01-29T12:09:25.510Z,1014.04
2017-01-29T12:10:36.925Z,1013.99
2017-01-29T12:11:48.585Z,1013.97
2017-01-29T12:12:59.995Z,1013.97
2017-01-29T12:14:11.403Z,1014
2017-01-29T12:15:22.826Z,1013.94
2017-01-29T12:16:34.236Z,1013.93
2017-01-29T12:17:45.699Z,1013.92
2017-01-29T12:18:57.299Z,1013.9
2017-01-29T12:20:08.713Z,1013.92
2017-01-29T12:21:20.128Z,1013.88
2017-01-29T12:22:31.546Z,1013.79
2017-01-29T12:23:43.010Z,1013.8
2017-01-29T12:24:54.420Z,1013.84
2017-01-29T12:26:05.862Z,1013.78
2017-01-29T12:27:17.270Z,1013.81
2017-01-29T12:28:28.880Z,1013.9
2017-01-29T12:29:40.341Z,1013.88
2017-01-29T12:30:51.759Z,1013.87
2017-01-29T12:32:03.175Z,1013.82
2017-01-29T12:33:14.602Z,1013.83
2017-01-29T12:34:26.009Z,1013.81
2017-01-29T12:35:37.460Z,1013.76
2017-01-29T12:36:48.871Z,1013.76
2017-01-29T12:38:00.273Z,1013.82
2017-01-29T12:39:11.721Z,1013.8
2017-01-29T12:40:23.130Z,1013.79
2017-01-29T12:41:34.596Z,1013.73
2017-01-29T12:42:46.013Z,1013.78
2017-01-29T12:43:57.430Z,1013.82
2017-01-29T12:45:08.840Z,1013.8
2017-01-29T12:46:20.255Z,1013.76
2017-01-29T12:47:31.719Z,1013.78
2017-01-29T12:48:43.138Z,1013.74
2017-01-29T12:49:54.551Z,1013.77
2017-01-29T12:51:05.958Z,1013.76
2017-01-29T12:52:17.373Z,1013.75
2017-01-29T12:53:28.835Z,1013.73
2017-01-29T12:54:40.255Z,1013.74
2017-01-29T12:55:51.663Z,1013.73
2017-01-29T12:57:03.283Z,1013.74
2017-01-29T12:58:14.689Z,1013.74
2017-01-29T12:59:26.157Z,1013.72
2017-01-29T13:00:37.570Z,1013.66
2017-01-29T13:01:48.984Z,1013.69
2017-01-29T13:03:00.401Z,1013.68
2017-01-29T13:04:11.818Z,1013.71
2017-01-29T13:05:23.274Z,1013.73
2017-01-29T13:06:34.690Z,1013.69
2017-01-29T13:07:46.106Z,1013.74
2017-01-29T13:08:57.525Z,1013.74
2017-01-29T13:10:08.936Z,1013.7
2017-01-29T13:11:20.802Z,1013.67
2017-01-29T13:12:32.249Z,1013.67
2017-01-29T13:13:43.659Z,1013.66
2017-01-29T13:14:55.077Z,1013.67
2017-01-29T13:16:06.482Z,1013.69
2017-01-29T13:17:17.957Z,1013.66
2017-01-29T13:18:29.379Z,1013.74
2017-01-29T13:19:40.779Z,1013.7
2017-01-29T13:20:52.191Z,1013.73
2017-01-29T13:22:03.599Z,1013.73
2017-01-29T13:23:15.053Z,1013.71
2017-01-29T13:24:26.460Z,1013.7
2017-01-29T13:25:38.068Z,1013.7
2017-01-29T13:26:49.482Z,1013.68
2017-01-29T13:28:00.887Z,1013.67
2017-01-29T13:29:12.551Z,1013.68
2017-01-29T13:30:23.965Z,1013.68
2017-01-29T13:31:35.387Z,1013.68
2017-01-29T13:32:46.986Z,1013.68
2017-01-29T13:33:58.397Z,1013.69
2017-01-29T13:35:10.059Z,1013.67
2017-01-29T13:36:21.480Z,1013.69
2017-01-29T13:37:32.888Z,1013.7
2017-01-29T13:38:44.298Z,1013.71
2017-01-29T13:39:55.704Z,1013.65
2017-01-29T13:41:07.169Z,1013.66
2017-01-29T13:42:18.584Z,1013.65
2017-01-29T13:43:29.995Z,1013.64
2017-01-29T13:44:41.410Z,1013.66
2017-01-29T13:45:52.825Z,1013.63
2017-01-29T13:47:04.291Z,1013.66
2017-01-29T13:48:15.908Z,1013.65
2017-01-29T13:49:27.321Z,1013.64
2017-01-29T13:50:38.943Z,1013.69
2017-01-29T13:51:50.369Z,1013.65
2017-01-29T13:53:01.839Z,1013.67
2017-01-29T13:54:13.254Z,1013.67
2017-01-29T13:55:24.871Z,1013.71
2017-01-29T13:56:36.512Z,1013.64
2017-01-29T13:57:47.932Z,1013.67
2017-01-29T13:58:59.598Z,1013.66
2017-01-29T14:00:11.007Z,1013.65
2017-01-29T14:01:22.418Z,1013.66
2017-01-29T14:02:33.830Z,1013.64
2017-01-29T14:03:45.242Z,1013.65
2017-01-29T14:04:56.705Z,1013.63
2017-01-29T14:06:08.117Z,1013.64
2017-01-29T14:07:19.518Z,1013.56
2017-01-29T14:08:31.131Z,1013.55
2017-01-29T14:09:42.540Z,1013.55
2017-01-29T14:10:53.995Z,1013.57
2017-01-29T14:12:05.408Z,1013.6
2017-01-29T14:13:16.806Z,1013.6
2017-01-29T14:14:28.224Z,1013.61
2017-01-29T14:15:39.637Z,1013.57
2017-01-29T14:16:51.106Z,1013.6
2017-01-29T14:18:02.516Z,1013.59
2017-01-29T14:19:13.932Z,1013.62
2017-01-29T14:20:25.339Z,1013.58
2017-01-29T14:21:36.750Z,1013.6
2017-01-29T14:22:48.211Z,1013.63
2017-01-29T14:23:59.631Z,1013.61
2017-01-29T14:25:11.039Z,1013.65
2017-01-29T14:26:22.450Z,1013.66
2017-01-29T14:27:33.860Z,1013.64
2017-01-29T14:28:45.326Z,1013.67